sensor_id;sensor_type;location;lat;lon;timestamp;temperature;humidity
19168;DHT22;9716;53.114;18.040;2022-10-22T00:01:20;11.20;99.90
19168;DHT22;9716;53.114;18.040;2022-10-22T00:03:50;11.20;99.90
19168;DHT22;9716;53.114;18.040;2022-10-22T00:06:19;11.20;99.90
19168;DHT22;9716;53.114;18.040;2022-10-22T00:08:47;11.20;99.90
19168;DHT22;9716;53.114;18.040;2022-10-22T00:11:18;11.20;99.90
19168;DHT22;9716;53.114;18.040;2022-10-22T00:13:47;11.20;99.90
19168;DHT22;9716;53.114;18.040;2022-10-22T00:16:17;11.20;99.90
19168;DHT22;9716;53.114;18.040;2022-10-22T00:18:45;11.20;99.90
19168;DHT22;9716;53.114;18.040;2022-10-22T00:21:14;11.20;99.90
19168;DHT22;9716;53.114;18.040;2022-10-22T00:23:42;11.20;99.90
19168;DHT22;9716;53.114;18.040;2022-10-22T00:26:11;11.20;99.90
19168;DHT22;9716;53.114;18.040;2022-10-22T00:28:39;11.30;99.90
19168;DHT22;9716;53.114;18.040;2022-10-22T00:31:08;11.30;99.90
19168;DHT22;9716;53.114;18.040;2022-10-22T00:33:39;11.30;99.90
19168;DHT22;9716;53.114;18.040;2022-10-22T00:36:08;11.30;99.90
19168;DHT22;9716;53.114;18.040;2022-10-22T00:38:36;11.30;99.90
19168;DHT22;9716;53.114;18.040;2022-10-22T00:41:06;11.30;99.90
19168;DHT22;9716;53.114;18.040;2022-10-22T00:43:53;11.30;99.90
19168;DHT22;9716;53.114;18.040;2022-10-22T00:46:22;11.30;99.90
19168;DHT22;9716;53.114;18.040;2022-10-22T00:48:54;11.30;99.90
19168;DHT22;9716;53.114;18.040;2022-10-22T00:51:26;11.30;99.90
19168;DHT22;9716;53.114;18.040;2022-10-22T00:54:00;11.30;99.90
19168;DHT22;9716;53.114;18.040;2022-10-22T00:56:30;11.40;99.90
19168;DHT22;9716;53.114;18.040;2022-10-22T00:58:59;11.30;99.90
19168;DHT22;9716;53.114;18.040;2022-10-22T01:01:30;11.40;99.90
19168;DHT22;9716;53.114;18.040;2022-10-22T01:04:00;11.30;99.90
19168;DHT22;9716;53.114;18.040;2022-10-22T01:06:31;11.30;99.90
19168;DHT22;9716;53.114;18.040;2022-10-22T01:09:08;11.40;99.90
19168;DHT22;9716;53.114;18.040;2022-10-22T01:11:48;11.30;99.90
19168;DHT22;9716;53.114;18.040;2022-10-22T01:14:23;11.30;99.90
19168;DHT22;9716;53.114;18.040;2022-10-22T01:16:58;11.30;99.90
19168;DHT22;9716;53.114;18.040;2022-10-22T01:19:41;11.30;99.90
19168;DHT22;9716;53.114;18.040;2022-10-22T01:22:19;11.30;99.90
19168;DHT22;9716;53.114;18.040;2022-10-22T01:24:56;11.30;99.90
19168;DHT22;9716;53.114;18.040;2022-10-22T01:27:33;11.30;99.90
19168;DHT22;9716;53.114;18.040;2022-10-22T01:30:08;11.30;99.90
19168;DHT22;9716;53.114;18.040;2022-10-22T01:32:40;11.30;99.90
19168;DHT22;9716;53.114;18.040;2022-10-22T01:35:13;11.30;99.90
19168;DHT22;9716;53.114;18.040;2022-10-22T01:37:45;11.30;99.90
19168;DHT22;9716;53.114;18.040;2022-10-22T01:40:16;11.30;99.90
19168;DHT22;9716;53.114;18.040;2022-10-22T01:42:56;11.30;99.90
19168;DHT22;9716;53.114;18.040;2022-10-22T01:45:28;11.30;99.90
19168;DHT22;9716;53.114;18.040;2022-10-22T01:48:07;11.30;99.90
19168;DHT22;9716;53.114;18.040;2022-10-22T01:50:51;11.30;99.90
19168;DHT22;9716;53.114;18.040;2022-10-22T01:53:26;11.30;99.90
19168;DHT22;9716;53.114;18.040;2022-10-22T01:56:09;11.30;99.90
19168;DHT22;9716;53.114;18.040;2022-10-22T01:58:46;11.30;99.90
19168;DHT22;9716;53.114;18.040;2022-10-22T02:01:23;11.30;99.90
19168;DHT22;9716;53.114;18.040;2022-10-22T02:03:57;11.30;99.90
19168;DHT22;9716;53.114;18.040;2022-10-22T02:06:28;11.20;99.90
19168;DHT22;9716;53.114;18.040;2022-10-22T02:09:00;11.30;99.90
19168;DHT22;9716;53.114;18.040;2022-10-22T02:11:29;11.20;99.90
19168;DHT22;9716;53.114;18.040;2022-10-22T02:14:01;11.20;99.90
19168;DHT22;9716;53.114;18.040;2022-10-22T02:16:34;11.20;99.90
19168;DHT22;9716;53.114;18.040;2022-10-22T02:19:09;11.20;99.90
19168;DHT22;9716;53.114;18.040;2022-10-22T02:21:39;11.20;99.90
19168;DHT22;9716;53.114;18.040;2022-10-22T02:24:08;11.20;99.90
19168;DHT22;9716;53.114;18.040;2022-10-22T02:26:39;11.20;99.90
19168;DHT22;9716;53.114;18.040;2022-10-22T02:29:12;11.30;99.90
19168;DHT22;9716;53.114;18.040;2022-10-22T02:31:44;11.20;99.90
19168;DHT22;9716;53.114;18.040;2022-10-22T02:34:17;11.20;99.90
19168;DHT22;9716;53.114;18.040;2022-10-22T02:36:47;11.20;99.90
19168;DHT22;9716;53.114;18.040;2022-10-22T02:39:17;11.20;99.90
19168;DHT22;9716;53.114;18.040;2022-10-22T02:41:47;11.20;99.90
19168;DHT22;9716;53.114;18.040;2022-10-22T02:44:20;11.20;99.90
19168;DHT22;9716;53.114;18.040;2022-10-22T02:46:50;11.20;99.90
19168;DHT22;9716;53.114;18.040;2022-10-22T02:49:19;11.20;99.90
19168;DHT22;9716;53.114;18.040;2022-10-22T02:51:47;11.20;99.90
19168;DHT22;9716;53.114;18.040;2022-10-22T02:54:15;11.20;99.90
19168;DHT22;9716;53.114;18.040;2022-10-22T02:56:44;11.20;99.90
19168;DHT22;9716;53.114;18.040;2022-10-22T02:59:12;11.20;99.90
19168;DHT22;9716;53.114;18.040;2022-10-22T03:01:40;11.20;99.90
19168;DHT22;9716;53.114;18.040;2022-10-22T03:04:11;11.20;99.90
19168;DHT22;9716;53.114;18.040;2022-10-22T03:06:39;11.20;99.90
19168;DHT22;9716;53.114;18.040;2022-10-22T03:09:10;11.20;99.90
19168;DHT22;9716;53.114;18.040;2022-10-22T03:11:38;11.20;99.90
19168;DHT22;9716;53.114;18.040;2022-10-22T03:14:08;11.30;99.90
19168;DHT22;9716;53.114;18.040;2022-10-22T03:16:36;11.20;99.90
19168;DHT22;9716;53.114;18.040;2022-10-22T03:19:05;11.30;99.90
19168;DHT22;9716;53.114;18.040;2022-10-22T03:21:37;11.30;99.90
19168;DHT22;9716;53.114;18.040;2022-10-22T03:24:09;11.30;99.90
19168;DHT22;9716;53.114;18.040;2022-10-22T03:26:38;11.30;99.90
19168;DHT22;9716;53.114;18.040;2022-10-22T03:29:09;11.30;99.90
19168;DHT22;9716;53.114;18.040;2022-10-22T03:31:38;11.30;99.90
19168;DHT22;9716;53.114;18.040;2022-10-22T03:34:07;11.40;99.90
19168;DHT22;9716;53.114;18.040;2022-10-22T03:36:37;11.40;99.90
19168;DHT22;9716;53.114;18.040;2022-10-22T03:39:07;11.30;99.90
19168;DHT22;9716;53.114;18.040;2022-10-22T03:41:36;11.30;99.90
19168;DHT22;9716;53.114;18.040;2022-10-22T03:44:05;11.40;99.90
19168;DHT22;9716;53.114;18.040;2022-10-22T03:46:34;11.30;99.90
19168;DHT22;9716;53.114;18.040;2022-10-22T03:49:02;11.30;99.90
19168;DHT22;9716;53.114;18.040;2022-10-22T03:51:31;11.30;99.90
19168;DHT22;9716;53.114;18.040;2022-10-22T03:54:01;11.40;99.90
19168;DHT22;9716;53.114;18.040;2022-10-22T03:56:30;11.30;99.90
19168;DHT22;9716;53.114;18.040;2022-10-22T03:58:59;11.40;99.90
19168;DHT22;9716;53.114;18.040;2022-10-22T04:01:29;11.40;99.90
19168;DHT22;9716;53.114;18.040;2022-10-22T04:03:58;11.40;99.90
19168;DHT22;9716;53.114;18.040;2022-10-22T04:06:28;11.40;99.90
19168;DHT22;9716;53.114;18.040;2022-10-22T04:08:58;11.40;99.90
19168;DHT22;9716;53.114;18.040;2022-10-22T04:11:28;11.40;99.90
19168;DHT22;9716;53.114;18.040;2022-10-22T04:13:57;11.40;99.90
19168;DHT22;9716;53.114;18.040;2022-10-22T04:16:25;11.40;99.90
19168;DHT22;9716;53.114;18.040;2022-10-22T04:18:57;11.40;99.90
19168;DHT22;9716;53.114;18.040;2022-10-22T04:21:25;11.40;99.90
19168;DHT22;9716;53.114;18.040;2022-10-22T04:23:54;11.40;99.90
19168;DHT22;9716;53.114;18.040;2022-10-22T04:26:23;11.40;99.90
19168;DHT22;9716;53.114;18.040;2022-10-22T04:28:53;11.40;99.90
19168;DHT22;9716;53.114;18.040;2022-10-22T04:31:23;11.40;99.90
19168;DHT22;9716;53.114;18.040;2022-10-22T04:33:52;11.40;99.90
19168;DHT22;9716;53.114;18.040;2022-10-22T04:36:21;11.40;99.90
19168;DHT22;9716;53.114;18.040;2022-10-22T04:38:52;11.40;99.90
19168;DHT22;9716;53.114;18.040;2022-10-22T04:41:23;11.50;99.90
19168;DHT22;9716;53.114;18.040;2022-10-22T04:43:54;11.40;99.90
19168;DHT22;9716;53.114;18.040;2022-10-22T04:46:24;11.50;99.90
19168;DHT22;9716;53.114;18.040;2022-10-22T04:48:53;11.50;99.90
19168;DHT22;9716;53.114;18.040;2022-10-22T04:51:22;11.50;99.90
19168;DHT22;9716;53.114;18.040;2022-10-22T04:53:52;11.50;99.90
19168;DHT22;9716;53.114;18.040;2022-10-22T04:56:25;11.50;99.90
19168;DHT22;9716;53.114;18.040;2022-10-22T04:58:56;11.50;99.90
19168;DHT22;9716;53.114;18.040;2022-10-22T05:01:26;11.50;99.90
19168;DHT22;9716;53.114;18.040;2022-10-22T05:03:57;11.50;99.90
19168;DHT22;9716;53.114;18.040;2022-10-22T05:06:28;11.50;99.90
19168;DHT22;9716;53.114;18.040;2022-10-22T05:08:59;11.50;99.90
19168;DHT22;9716;53.114;18.040;2022-10-22T05:11:30;11.50;99.90
19168;DHT22;9716;53.114;18.040;2022-10-22T05:14:02;11.50;99.90
19168;DHT22;9716;53.114;18.040;2022-10-22T05:16:32;11.50;99.90
19168;DHT22;9716;53.114;18.040;2022-10-22T05:19:01;11.50;99.90
19168;DHT22;9716;53.114;18.040;2022-10-22T05:21:30;11.50;99.90
19168;DHT22;9716;53.114;18.040;2022-10-22T05:23:58;11.50;99.90
19168;DHT22;9716;53.114;18.040;2022-10-22T05:26:28;11.60;99.90
19168;DHT22;9716;53.114;18.040;2022-10-22T05:28:57;11.60;99.90
19168;DHT22;9716;53.114;18.040;2022-10-22T05:31:26;11.60;99.90
19168;DHT22;9716;53.114;18.040;2022-10-22T05:33:55;11.60;99.90
19168;DHT22;9716;53.114;18.040;2022-10-22T05:36:25;11.60;99.90
19168;DHT22;9716;53.114;18.040;2022-10-22T05:38:53;11.60;99.90
19168;DHT22;9716;53.114;18.040;2022-10-22T05:41:23;11.60;99.90
19168;DHT22;9716;53.114;18.040;2022-10-22T05:43:54;11.70;99.90
19168;DHT22;9716;53.114;18.040;2022-10-22T05:46:24;11.70;99.90
19168;DHT22;9716;53.114;18.040;2022-10-22T05:48:56;11.70;99.90
19168;DHT22;9716;53.114;18.040;2022-10-22T05:51:25;11.80;99.90
19168;DHT22;9716;53.114;18.040;2022-10-22T05:53:57;11.80;99.90
19168;DHT22;9716;53.114;18.040;2022-10-22T05:56:27;11.90;99.90
19168;DHT22;9716;53.114;18.040;2022-10-22T05:58:57;11.90;99.90
19168;DHT22;9716;53.114;18.040;2022-10-22T06:01:27;11.90;99.90
19168;DHT22;9716;53.114;18.040;2022-10-22T06:03:59;11.90;99.90
19168;DHT22;9716;53.114;18.040;2022-10-22T06:06:30;11.90;99.90
19168;DHT22;9716;53.114;18.040;2022-10-22T06:09:02;12.00;99.90
19168;DHT22;9716;53.114;18.040;2022-10-22T06:11:32;12.00;99.90
19168;DHT22;9716;53.114;18.040;2022-10-22T06:14:02;12.00;99.90
19168;DHT22;9716;53.114;18.040;2022-10-22T06:16:31;12.10;99.90
19168;DHT22;9716;53.114;18.040;2022-10-22T06:19:01;12.10;99.90
19168;DHT22;9716;53.114;18.040;2022-10-22T06:21:30;12.10;99.90
19168;DHT22;9716;53.114;18.040;2022-10-22T06:23:59;12.10;99.90
19168;DHT22;9716;53.114;18.040;2022-10-22T06:26:28;12.20;99.90
19168;DHT22;9716;53.114;18.040;2022-10-22T06:28:57;12.20;99.90
19168;DHT22;9716;53.114;18.040;2022-10-22T06:31:27;12.20;99.90
19168;DHT22;9716;53.114;18.040;2022-10-22T06:33:56;12.30;99.90
19168;DHT22;9716;53.114;18.040;2022-10-22T06:36:26;12.30;99.90
19168;DHT22;9716;53.114;18.040;2022-10-22T06:38:55;12.30;99.90
19168;DHT22;9716;53.114;18.040;2022-10-22T06:41:23;12.30;99.90
19168;DHT22;9716;53.114;18.040;2022-10-22T06:43:56;12.30;99.90
19168;DHT22;9716;53.114;18.040;2022-10-22T06:46:25;12.40;99.90
19168;DHT22;9716;53.114;18.040;2022-10-22T06:48:56;12.40;99.90
19168;DHT22;9716;53.114;18.040;2022-10-22T06:51:26;12.40;99.90
19168;DHT22;9716;53.114;18.040;2022-10-22T06:53:56;12.40;99.90
19168;DHT22;9716;53.114;18.040;2022-10-22T06:56:26;12.50;99.90
19168;DHT22;9716;53.114;18.040;2022-10-22T06:58:56;12.40;99.90
19168;DHT22;9716;53.114;18.040;2022-10-22T07:01:26;12.50;99.90
19168;DHT22;9716;53.114;18.040;2022-10-22T07:03:56;12.50;99.90
19168;DHT22;9716;53.114;18.040;2022-10-22T07:06:26;12.50;99.90
19168;DHT22;9716;53.114;18.040;2022-10-22T07:08:56;12.50;99.90
19168;DHT22;9716;53.114;18.040;2022-10-22T07:11:27;12.60;99.90
19168;DHT22;9716;53.114;18.040;2022-10-22T07:13:57;12.50;99.90
19168;DHT22;9716;53.114;18.040;2022-10-22T07:16:26;12.60;99.90
19168;DHT22;9716;53.114;18.040;2022-10-22T07:18:59;12.60;99.90
19168;DHT22;9716;53.114;18.040;2022-10-22T07:21:28;12.60;99.90
19168;DHT22;9716;53.114;18.040;2022-10-22T07:23:58;12.60;99.90
19168;DHT22;9716;53.114;18.040;2022-10-22T07:26:27;12.70;99.90
19168;DHT22;9716;53.114;18.040;2022-10-22T07:28:58;12.70;99.90
19168;DHT22;9716;53.114;18.040;2022-10-22T07:31:27;12.70;99.90
19168;DHT22;9716;53.114;18.040;2022-10-22T07:33:56;12.70;99.90
19168;DHT22;9716;53.114;18.040;2022-10-22T07:36:24;12.70;99.90
19168;DHT22;9716;53.114;18.040;2022-10-22T07:38:56;12.70;99.90
19168;DHT22;9716;53.114;18.040;2022-10-22T07:41:26;12.80;99.90
19168;DHT22;9716;53.114;18.040;2022-10-22T07:43:56;12.80;99.90
19168;DHT22;9716;53.114;18.040;2022-10-22T07:46:25;12.90;99.90
19168;DHT22;9716;53.114;18.040;2022-10-22T07:48:54;12.90;99.90
19168;DHT22;9716;53.114;18.040;2022-10-22T07:51:22;13.00;99.90
19168;DHT22;9716;53.114;18.040;2022-10-22T07:53:51;13.00;99.90
19168;DHT22;9716;53.114;18.040;2022-10-22T07:56:21;13.10;99.90
19168;DHT22;9716;53.114;18.040;2022-10-22T07:58:49;13.10;99.90
19168;DHT22;9716;53.114;18.040;2022-10-22T08:01:17;13.20;99.90
19168;DHT22;9716;53.114;18.040;2022-10-22T08:03:46;13.20;99.90
19168;DHT22;9716;53.114;18.040;2022-10-22T08:06:15;13.20;99.90
19168;DHT22;9716;53.114;18.040;2022-10-22T08:08:44;13.30;99.90
19168;DHT22;9716;53.114;18.040;2022-10-22T08:11:13;13.30;99.90
19168;DHT22;9716;53.114;18.040;2022-10-22T08:13:42;13.40;99.90
19168;DHT22;9716;53.114;18.040;2022-10-22T08:16:12;13.40;99.90
19168;DHT22;9716;53.114;18.040;2022-10-22T08:18:41;13.40;99.90
19168;DHT22;9716;53.114;18.040;2022-10-22T08:21:11;13.50;99.90
19168;DHT22;9716;53.114;18.040;2022-10-22T08:23:40;13.60;99.90
19168;DHT22;9716;53.114;18.040;2022-10-22T08:26:08;13.60;99.90
19168;DHT22;9716;53.114;18.040;2022-10-22T08:28:37;13.70;99.90
19168;DHT22;9716;53.114;18.040;2022-10-22T08:31:07;13.70;99.90
19168;DHT22;9716;53.114;18.040;2022-10-22T08:33:37;13.80;99.90
19168;DHT22;9716;53.114;18.040;2022-10-22T08:36:06;13.80;99.90
19168;DHT22;9716;53.114;18.040;2022-10-22T08:38:35;13.90;99.90
19168;DHT22;9716;53.114;18.040;2022-10-22T08:41:09;14.00;99.90
19168;DHT22;9716;53.114;18.040;2022-10-22T08:44:04;14.00;99.90
19168;DHT22;9716;53.114;18.040;2022-10-22T08:46:50;14.10;99.90
19168;DHT22;9716;53.114;18.040;2022-10-22T08:49:23;14.20;99.90
19168;DHT22;9716;53.114;18.040;2022-10-22T08:51:54;14.30;99.90
19168;DHT22;9716;53.114;18.040;2022-10-22T08:54:29;14.30;99.90
19168;DHT22;9716;53.114;18.040;2022-10-22T08:57:10;14.40;99.90
19168;DHT22;9716;53.114;18.040;2022-10-22T08:59:46;14.40;99.90
19168;DHT22;9716;53.114;18.040;2022-10-22T09:02:29;14.50;99.90
19168;DHT22;9716;53.114;18.040;2022-10-22T09:05:10;14.60;99.90
19168;DHT22;9716;53.114;18.040;2022-10-22T09:07:44;14.70;99.90
19168;DHT22;9716;53.114;18.040;2022-10-22T09:10:16;14.80;99.90
19168;DHT22;9716;53.114;18.040;2022-10-22T09:12:46;14.80;99.90
19168;DHT22;9716;53.114;18.040;2022-10-22T09:15:18;14.90;99.90
19168;DHT22;9716;53.114;18.040;2022-10-22T09:17:58;14.90;99.90
19168;DHT22;9716;53.114;18.040;2022-10-22T09:20:37;14.90;99.90
19168;DHT22;9716;53.114;18.040;2022-10-22T09:23:20;15.00;99.90
19168;DHT22;9716;53.114;18.040;2022-10-22T09:25:51;15.00;99.90
19168;DHT22;9716;53.114;18.040;2022-10-22T09:28:21;15.10;99.90
19168;DHT22;9716;53.114;18.040;2022-10-22T09:30:50;15.10;99.90
19168;DHT22;9716;53.114;18.040;2022-10-22T09:33:23;15.10;99.90
19168;DHT22;9716;53.114;18.040;2022-10-22T09:35:55;15.20;99.90
19168;DHT22;9716;53.114;18.040;2022-10-22T09:38:26;15.20;99.90
19168;DHT22;9716;53.114;18.040;2022-10-22T09:40:56;15.10;99.90
19168;DHT22;9716;53.114;18.040;2022-10-22T09:43:25;15.20;99.90
19168;DHT22;9716;53.114;18.040;2022-10-22T09:45:58;15.20;99.90
19168;DHT22;9716;53.114;18.040;2022-10-22T09:48:31;15.20;99.90
19168;DHT22;9716;53.114;18.040;2022-10-22T09:51:06;15.20;99.90
19168;DHT22;9716;53.114;18.040;2022-10-22T09:53:41;15.20;99.90
19168;DHT22;9716;53.114;18.040;2022-10-22T09:56:20;15.20;99.90
19168;DHT22;9716;53.114;18.040;2022-10-22T09:58:49;15.20;99.90
19168;DHT22;9716;53.114;18.040;2022-10-22T10:01:21;15.20;99.90
19168;DHT22;9716;53.114;18.040;2022-10-22T10:03:51;15.20;99.90
19168;DHT22;9716;53.114;18.040;2022-10-22T10:06:22;15.20;99.90
19168;DHT22;9716;53.114;18.040;2022-10-22T10:08:51;15.30;99.90
19168;DHT22;9716;53.114;18.040;2022-10-22T10:11:26;15.20;99.90
19168;DHT22;9716;53.114;18.040;2022-10-22T10:14:05;15.20;99.90
19168;DHT22;9716;53.114;18.040;2022-10-22T10:16:44;15.20;99.90
19168;DHT22;9716;53.114;18.040;2022-10-22T10:19:29;15.10;99.90
19168;DHT22;9716;53.114;18.040;2022-10-22T10:22:06;15.00;99.90
19168;DHT22;9716;53.114;18.040;2022-10-22T10:24:48;15.00;99.90
19168;DHT22;9716;53.114;18.040;2022-10-22T10:27:24;14.90;99.90
19168;DHT22;9716;53.114;18.040;2022-10-22T10:29:59;14.80;99.90
19168;DHT22;9716;53.114;18.040;2022-10-22T10:32:50;14.70;99.90
19168;DHT22;9716;53.114;18.040;2022-10-22T10:35:27;14.70;99.90
19168;DHT22;9716;53.114;18.040;2022-10-22T10:38:15;14.70;99.90
19168;DHT22;9716;53.114;18.040;2022-10-22T10:40:48;14.70;99.90
19168;DHT22;9716;53.114;18.040;2022-10-22T10:43:23;14.60;99.90
19168;DHT22;9716;53.114;18.040;2022-10-22T10:45:58;14.60;99.90
19168;DHT22;9716;53.114;18.040;2022-10-22T10:48:39;14.50;99.90
19168;DHT22;9716;53.114;18.040;2022-10-22T10:51:25;14.50;99.90
19168;DHT22;9716;53.114;18.040;2022-10-22T10:56:48;14.50;99.90
19168;DHT22;9716;53.114;18.040;2022-10-22T10:59:26;14.40;99.90
19168;DHT22;9716;53.114;18.040;2022-10-22T11:02:30;14.40;99.90
19168;DHT22;9716;53.114;18.040;2022-10-22T11:05:10;14.50;99.90
19168;DHT22;9716;53.114;18.040;2022-10-22T11:07:46;14.50;99.90
19168;DHT22;9716;53.114;18.040;2022-10-22T11:10:28;14.50;99.90
19168;DHT22;9716;53.114;18.040;2022-10-22T11:13:02;14.50;99.90
19168;DHT22;9716;53.114;18.040;2022-10-22T11:15:35;14.50;99.90
19168;DHT22;9716;53.114;18.040;2022-10-22T11:18:13;14.60;99.90
19168;DHT22;9716;53.114;18.040;2022-10-22T11:20:49;14.60;99.90
19168;DHT22;9716;53.114;18.040;2022-10-22T11:23:26;14.60;99.90
19168;DHT22;9716;53.114;18.040;2022-10-22T11:25:55;14.60;99.90
19168;DHT22;9716;53.114;18.040;2022-10-22T11:28:26;14.60;99.90
19168;DHT22;9716;53.114;18.040;2022-10-22T11:31:00;14.60;99.90
19168;DHT22;9716;53.114;18.040;2022-10-22T11:33:36;14.60;99.90
19168;DHT22;9716;53.114;18.040;2022-10-22T11:36:09;14.60;99.90
19168;DHT22;9716;53.114;18.040;2022-10-22T11:38:39;14.50;99.90
19168;DHT22;9716;53.114;18.040;2022-10-22T11:41:11;14.50;99.90
19168;DHT22;9716;53.114;18.040;2022-10-22T11:43:57;14.50;99.90
19168;DHT22;9716;53.114;18.040;2022-10-22T11:46:38;14.50;99.90
19168;DHT22;9716;53.114;18.040;2022-10-22T11:49:18;14.40;99.90
19168;DHT22;9716;53.114;18.040;2022-10-22T11:51:50;14.40;99.90
19168;DHT22;9716;53.114;18.040;2022-10-22T11:54:29;14.40;99.90
19168;DHT22;9716;53.114;18.040;2022-10-22T11:57:17;14.40;99.90
19168;DHT22;9716;53.114;18.040;2022-10-22T11:59:51;14.40;99.90
19168;DHT22;9716;53.114;18.040;2022-10-22T12:02:39;14.30;99.90
19168;DHT22;9716;53.114;18.040;2022-10-22T12:05:42;14.30;99.90
19168;DHT22;9716;53.114;18.040;2022-10-22T12:08:22;14.30;99.90
19168;DHT22;9716;53.114;18.040;2022-10-22T12:11:04;14.30;99.90
19168;DHT22;9716;53.114;18.040;2022-10-22T12:16:43;14.30;99.90
19168;DHT22;9716;53.114;18.040;2022-10-22T12:19:29;14.30;99.90
19168;DHT22;9716;53.114;18.040;2022-10-22T12:22:06;14.20;99.90
19168;DHT22;9716;53.114;18.040;2022-10-22T12:24:41;14.30;99.90
19168;DHT22;9716;53.114;18.040;2022-10-22T12:27:19;14.30;99.90
19168;DHT22;9716;53.114;18.040;2022-10-22T12:29:53;14.30;99.90
19168;DHT22;9716;53.114;18.040;2022-10-22T12:32:23;14.30;99.90
19168;DHT22;9716;53.114;18.040;2022-10-22T12:34:56;14.30;99.90
19168;DHT22;9716;53.114;18.040;2022-10-22T12:37:24;14.30;99.90
19168;DHT22;9716;53.114;18.040;2022-10-22T12:39:53;14.30;99.90
19168;DHT22;9716;53.114;18.040;2022-10-22T12:42:22;14.30;99.90
19168;DHT22;9716;53.114;18.040;2022-10-22T12:44:54;14.30;99.90
19168;DHT22;9716;53.114;18.040;2022-10-22T12:47:22;14.30;99.90
19168;DHT22;9716;53.114;18.040;2022-10-22T12:49:51;14.30;99.90
19168;DHT22;9716;53.114;18.040;2022-10-22T12:52:21;14.30;99.90
19168;DHT22;9716;53.114;18.040;2022-10-22T12:54:51;14.30;99.90
19168;DHT22;9716;53.114;18.040;2022-10-22T12:57:24;14.30;99.90
19168;DHT22;9716;53.114;18.040;2022-10-22T12:59:52;14.30;99.90
19168;DHT22;9716;53.114;18.040;2022-10-22T13:02:23;14.30;99.90
19168;DHT22;9716;53.114;18.040;2022-10-22T13:05:20;14.30;99.90
19168;DHT22;9716;53.114;18.040;2022-10-22T13:07:50;14.30;99.90
19168;DHT22;9716;53.114;18.040;2022-10-22T13:10:24;14.20;99.90
19168;DHT22;9716;53.114;18.040;2022-10-22T13:12:56;14.20;99.90
19168;DHT22;9716;53.114;18.040;2022-10-22T13:15:35;14.20;99.90
19168;DHT22;9716;53.114;18.040;2022-10-22T13:18:12;14.20;99.90
19168;DHT22;9716;53.114;18.040;2022-10-22T13:20:56;14.20;99.90
19168;DHT22;9716;53.114;18.040;2022-10-22T13:23:26;14.20;99.90
19168;DHT22;9716;53.114;18.040;2022-10-22T13:25:57;14.10;99.90
19168;DHT22;9716;53.114;18.040;2022-10-22T13:28:28;14.10;99.90
19168;DHT22;9716;53.114;18.040;2022-10-22T13:31:00;14.10;99.90
19168;DHT22;9716;53.114;18.040;2022-10-22T13:33:31;14.10;99.90
19168;DHT22;9716;53.114;18.040;2022-10-22T13:36:01;14.10;99.90
19168;DHT22;9716;53.114;18.040;2022-10-22T13:38:30;14.10;99.90
19168;DHT22;9716;53.114;18.040;2022-10-22T13:40:58;14.10;99.90
19168;DHT22;9716;53.114;18.040;2022-10-22T13:43:30;14.10;99.90
19168;DHT22;9716;53.114;18.040;2022-10-22T13:45:59;14.00;99.90
19168;DHT22;9716;53.114;18.040;2022-10-22T13:48:28;14.00;99.90
19168;DHT22;9716;53.114;18.040;2022-10-22T13:50:57;14.00;99.90
19168;DHT22;9716;53.114;18.040;2022-10-22T13:53:27;14.00;99.90
19168;DHT22;9716;53.114;18.040;2022-10-22T13:55:56;14.10;99.90
19168;DHT22;9716;53.114;18.040;2022-10-22T13:58:25;14.10;99.90
19168;DHT22;9716;53.114;18.040;2022-10-22T14:00:57;14.10;99.90
19168;DHT22;9716;53.114;18.040;2022-10-22T14:03:28;14.20;99.90
19168;DHT22;9716;53.114;18.040;2022-10-22T14:05:57;14.20;99.90
19168;DHT22;9716;53.114;18.040;2022-10-22T14:08:27;14.20;99.90
19168;DHT22;9716;53.114;18.040;2022-10-22T14:10:56;14.30;99.90
19168;DHT22;9716;53.114;18.040;2022-10-22T14:13:24;14.30;99.90
19168;DHT22;9716;53.114;18.040;2022-10-22T14:15:53;14.30;99.90
19168;DHT22;9716;53.114;18.040;2022-10-22T14:18:24;14.30;99.90
19168;DHT22;9716;53.114;18.040;2022-10-22T14:20:56;14.30;99.90
19168;DHT22;9716;53.114;18.040;2022-10-22T14:23:27;14.20;99.90
19168;DHT22;9716;53.114;18.040;2022-10-22T14:25:57;14.20;99.90
19168;DHT22;9716;53.114;18.040;2022-10-22T14:28:26;14.20;99.90
19168;DHT22;9716;53.114;18.040;2022-10-22T14:30:57;14.20;99.90
19168;DHT22;9716;53.114;18.040;2022-10-22T14:33:29;14.20;99.90
19168;DHT22;9716;53.114;18.040;2022-10-22T14:35:59;14.20;99.90
19168;DHT22;9716;53.114;18.040;2022-10-22T14:38:28;14.20;99.90
19168;DHT22;9716;53.114;18.040;2022-10-22T14:40:58;14.10;99.90
19168;DHT22;9716;53.114;18.040;2022-10-22T14:43:28;14.10;99.90
19168;DHT22;9716;53.114;18.040;2022-10-22T14:45:57;14.10;99.90
19168;DHT22;9716;53.114;18.040;2022-10-22T14:48:27;14.10;99.90
19168;DHT22;9716;53.114;18.040;2022-10-22T14:50:55;14.10;99.90
19168;DHT22;9716;53.114;18.040;2022-10-22T14:53:24;14.00;99.90
19168;DHT22;9716;53.114;18.040;2022-10-22T14:55:52;14.00;99.90
19168;DHT22;9716;53.114;18.040;2022-10-22T14:58:24;14.00;99.90
19168;DHT22;9716;53.114;18.040;2022-10-22T15:00:53;14.00;99.90
19168;DHT22;9716;53.114;18.040;2022-10-22T15:03:21;14.00;99.90
19168;DHT22;9716;53.114;18.040;2022-10-22T15:05:52;14.00;99.90
19168;DHT22;9716;53.114;18.040;2022-10-22T15:08:21;14.00;99.90
19168;DHT22;9716;53.114;18.040;2022-10-22T15:10:57;14.00;99.90
19168;DHT22;9716;53.114;18.040;2022-10-22T15:13:26;14.00;99.90
19168;DHT22;9716;53.114;18.040;2022-10-22T15:15:55;14.00;99.90
19168;DHT22;9716;53.114;18.040;2022-10-22T15:18:24;14.00;99.90
19168;DHT22;9716;53.114;18.040;2022-10-22T15:21:00;14.00;99.90
19168;DHT22;9716;53.114;18.040;2022-10-22T15:23:29;14.00;99.90
19168;DHT22;9716;53.114;18.040;2022-10-22T15:25:58;14.00;99.90
19168;DHT22;9716;53.114;18.040;2022-10-22T15:28:26;14.00;99.90
19168;DHT22;9716;53.114;18.040;2022-10-22T15:30:56;14.00;99.90
19168;DHT22;9716;53.114;18.040;2022-10-22T15:33:26;14.00;99.90
19168;DHT22;9716;53.114;18.040;2022-10-22T15:35:56;13.90;99.90
19168;DHT22;9716;53.114;18.040;2022-10-22T15:38:27;13.90;99.90
19168;DHT22;9716;53.114;18.040;2022-10-22T15:40:59;13.90;99.90
19168;DHT22;9716;53.114;18.040;2022-10-22T15:43:32;13.90;99.90
19168;DHT22;9716;53.114;18.040;2022-10-22T15:46:12;13.80;99.90
19168;DHT22;9716;53.114;18.040;2022-10-22T15:48:41;13.80;99.90
19168;DHT22;9716;53.114;18.040;2022-10-22T15:51:11;13.80;99.90
19168;DHT22;9716;53.114;18.040;2022-10-22T15:53:41;13.80;99.90
19168;DHT22;9716;53.114;18.040;2022-10-22T15:56:10;13.80;99.90
19168;DHT22;9716;53.114;18.040;2022-10-22T15:58:39;13.80;99.90
19168;DHT22;9716;53.114;18.040;2022-10-22T16:01:09;13.80;99.90
19168;DHT22;9716;53.114;18.040;2022-10-22T16:03:38;13.80;99.90
19168;DHT22;9716;53.114;18.040;2022-10-22T16:06:07;13.80;99.90